Time;durP1;ratioP1;P1;durP2;ratioP2;P2;SDS_P1;SDS_P2;PMS_P1;PMS_P2;Temp;Humidity;BMP_temperature;BMP_pressure;BME280_temperature;BME280_humidity;BME280_pressure;Samples;Min_cycle;Max_cycle;Signal;HPM_P1;HPM_P2
2023/07/01 00:01:12;;;;;;;;;17.00;15.50;;;;;17.48;100.00;98887.22;6280569;20;2825309;-50
2023/07/01 00:03:40;;;;;;;;;16.00;16.00;;;;;17.80;100.00;98888.50;6280503;20;2494241;-50
2023/07/01 00:06:08;;;;;;;;;15.67;14.33;;;;;17.74;100.00;98889.06;6318063;20;3540996;-53
2023/07/01 00:08:35;;;;;;;;;14.00;14.00;;;;;17.98;100.00;98889.28;6313097;20;2491951;-53
2023/07/01 00:11:03;;;;;;;;;15.67;15.67;;;;;18.14;99.75;98891.22;6282193;20;3554470;-53
2023/07/01 00:13:31;;;;;;;;;11.67;11.00;;;;;18.11;98.63;98877.94;6281092;20;3512867;-49
2023/07/01 00:15:59;;;;;;;;;15.00;13.00;;;;;18.15;99.17;98875.78;6312957;20;2496158;-54
2023/07/01 00:18:27;;;;;;;;;14.67;14.67;;;;;18.21;98.50;98885.97;6280447;20;3537763;-54
2023/07/01 00:20:55;;;;;;;;;15.00;15.00;;;;;17.81;100.00;98894.78;6278145;20;3529533;-50
2023/07/01 00:23:24;;;;;;;;;16.00;16.00;;;;;17.76;100.00;98890.63;6279478;20;2829577;-50
2023/07/01 00:25:52;;;;;;;;;15.00;15.00;;;;;17.81;100.00;98889.34;6281630;20;2500370;-51
2023/07/01 00:28:19;;;;;;;;;13.50;13.50;;;;;17.45;100.00;98887.50;6280105;20;2500373;-55
2023/07/01 00:30:46;;;;;;;;;14.00;14.00;;;;;17.31;100.00;98888.94;6278632;20;2491930;-51
2023/07/01 00:33:15;;;;;;;;;21.00;18.00;;;;;17.13;100.00;98882.69;6280539;20;2825273;-53
2023/07/01 00:35:42;;;;;;;;;18.50;16.00;;;;;17.03;100.00;98884.63;6280429;20;2492005;-54
2023/07/01 00:38:10;;;;;;;;;18.67;18.67;;;;;16.88;100.00;98881.63;6282069;20;3558704;-54
2023/07/01 00:40:39;;;;;;;;;18.50;17.00;;;;;16.85;100.00;98871.94;6280032;20;2823326;-52
2023/07/01 00:43:06;;;;;;;;;14.00;13.50;;;;;16.93;100.00;98884.72;6283175;20;2500277;-57
2023/07/01 00:45:34;;;;;;;;;18.50;16.00;;;;;16.94;100.00;98874.72;6279593;20;2833649;-53
2023/07/01 00:48:03;;;;;;;;;16.50;15.50;;;;;16.95;100.00;98876.41;6278483;20;2823219;-49
2023/07/01 00:50:31;;;;;;;;;20.50;17.50;;;;;16.80;100.00;98876.97;6282021;20;2837783;-55
2023/07/01 00:53:00;;;;;;;;;18.50;17.00;;;;;16.86;100.00;98870.06;6275616;20;2830897;-51
2023/07/01 00:55:28;;;;;;;;;18.00;18.00;;;;;16.73;100.00;98865.00;6281094;20;2835823;-53
2023/07/01 00:57:56;;;;;;;;;18.00;16.50;;;;;16.57;100.00;98867.53;6281823;20;2831493;-54
2023/07/01 01:00:24;;;;;;;;;19.00;17.00;;;;;16.43;100.00;98863.50;6279528;20;2835885;-53
2023/07/01 01:02:57;;;;;;;;;19.00;19.00;;;;;16.28;100.00;98857.72;6281432;20;2830529;-53
2023/07/01 01:05:37;;;;;;;;;20.00;18.00;;;;;16.42;100.00;98859.91;6280345;20;2816946;-56
2023/07/01 01:08:58;;;;;;;;;14.00;14.00;;;;;16.57;100.00;98862.13;6277295;20;3524463;-51
2023/07/01 01:11:31;;;;;;;;;15.50;14.00;;;;;16.91;100.00;98851.47;6273386;20;2812912;-52
2023/07/01 01:14:05;;;;;;;;;15.00;15.00;;;;;16.84;100.00;98843.09;6281184;20;2810765;-55
2023/07/01 01:16:34;;;;;;;;;15.67;15.00;;;;;16.88;100.00;98841.78;6281359;20;2807616;-52
2023/07/01 01:19:26;;;;;;;;;17.67;16.00;;;;;16.84;100.00;98840.38;6307744;20;3557727;-52
2023/07/01 01:22:31;;;;;;;;;15.50;15.50;;;;;16.46;100.00;98847.78;6278172;20;2814894;-52
2023/07/01 01:25:10;;;;;;;;;18.00;16.50;;;;;16.24;100.00;98848.19;6277132;20;2831574;-53
2023/07/01 01:27:42;;;;;;;;;18.67;16.00;;;;;16.30;100.00;98844.88;6277380;20;3558603;-51
2023/07/01 01:30:10;;;;;;;;;17.00;17.00;;;;;16.38;100.00;98842.28;6273573;20;2483625;-57
2023/07/01 01:32:38;;;;;;;;;14.50;14.50;;;;;16.24;100.00;98845.47;6276072;20;2799260;-54
2023/07/01 01:35:07;;;;;;;;;16.50;15.50;;;;;16.28;100.00;98840.63;6278187;20;2820056;-51
2023/07/01 01:37:43;;;;;;;;;19.00;17.50;;;;;16.34;100.00;98840.00;6279454;20;2831508;-50
2023/07/01 01:40:23;;;;;;;;;19.00;16.00;;;;;16.42;100.00;98843.66;6275249;20;2820049;-53
2023/07/01 01:43:05;;;;;;;;;19.00;18.00;;;;;16.07;100.00;98833.59;6278086;20;2492012;-51
2023/07/01 01:45:35;;;;;;;;;16.50;16.50;;;;;16.00;100.00;98838.75;6280687;20;2818092;-53
2023/07/01 01:48:05;;;;;;;;;15.00;14.00;;;;;16.25;100.00;98841.78;6277086;20;2494076;-50
2023/07/01 01:50:36;;;;;;;;;17.00;17.00;;;;;16.34;100.00;98846.28;6279230;20;2832640;-51
2023/07/01 01:53:05;;;;;;;;;17.50;16.50;;;;;16.02;100.00;98839.47;6280432;20;2824376;-51
2023/07/01 01:55:33;;;;;;;;;18.00;18.00;;;;;15.93;100.00;98836.78;6284407;20;2487957;-52
2023/07/01 01:58:01;;;;;;;;;16.50;15.00;;;;;15.90;100.00;98835.22;6282660;20;2483720;-49
2023/07/01 02:00:34;;;;;;;;;17.67;14.00;;;;;15.84;100.00;98835.84;6281738;20;3539883;-54
2023/07/01 02:03:02;;;;;;;;;17.33;17.00;;;;;15.71;100.00;98835.31;6280549;20;3565872;-56
2023/07/01 02:05:30;;;;;;;;;17.50;15.50;;;;;15.45;100.00;98833.22;6284216;20;2484031;-54
2023/07/01 02:08:01;;;;;;;;;15.67;14.67;;;;;15.33;100.00;98829.84;6279893;20;3543595;-53
2023/07/01 02:10:32;;;;;;;;;18.00;17.00;;;;;15.55;100.00;98830.50;6284662;20;2827383;-53
2023/07/01 02:13:02;;;;;;;;;18.00;15.00;;;;;15.71;100.00;98832.63;6281868;20;2820089;-53
2023/07/01 02:15:31;;;;;;;;;18.50;18.50;;;;;15.73;100.00;98826.06;6284795;20;2843380;-62
2023/07/01 02:17:58;;;;;;;;;16.00;16.00;;;;;15.84;100.00;98824.16;6282775;20;2491960;-51
2023/07/01 02:20:26;;;;;;;;;18.33;15.67;;;;;16.33;100.00;98824.78;6282626;20;3544135;-50
2023/07/01 02:22:55;;;;;;;;;20.67;19.00;;;;;16.23;100.00;98827.53;6285803;20;3574269;-51
2023/07/01 02:25:23;;;;;;;;;18.50;18.00;;;;;16.35;100.00;98826.31;6282915;20;2839863;-50
2023/07/01 02:27:52;;;;;;;;;20.00;18.67;;;;;16.17;100.00;98822.72;6283725;20;2838831;-55
2023/07/01 02:30:20;;;;;;;;;18.67;18.67;;;;;16.12;100.00;98825.03;6316721;20;3554442;-52
2023/07/01 02:32:48;;;;;;;;;10.00;10.00;;;;;16.30;100.00;98834.06;6321408;20;2766987;-51
2023/07/01 02:35:16;;;;;;;;;16.50;16.50;;;;;15.94;100.00;98828.53;6286051;20;2830872;-53
2023/07/01 02:37:45;;;;;;;;;16.33;16.33;;;;;15.54;100.00;98832.38;6282787;20;3546220;-52
2023/07/01 02:40:13;;;;;;;;;17.50;17.50;;;;;15.51;100.00;98832.66;6282453;20;2837900;-52
2023/07/01 02:42:40;;;;;;;;;17.50;17.50;;;;;15.49;100.00;98833.81;6283311;20;2491919;-51
2023/07/01 02:45:09;;;;;;;;;18.00;16.50;;;;;15.31;100.00;98826.44;6283464;20;2829500;-52
2023/07/01 02:47:37;;;;;;;;;17.50;17.50;;;;;15.33;100.00;98826.31;6284236;20;2831628;-53
2023/07/01 02:50:07;;;;;;;;;19.00;18.50;;;;;15.65;100.00;98833.19;6280838;20;2833621;-53
2023/07/01 02:52:35;;;;;;;;;19.00;19.00;;;;;15.73;100.00;98833.34;6282194;20;2843032;-54
2023/07/01 02:55:04;;;;;;;;;18.50;16.50;;;;;15.48;100.00;98827.56;6285239;20;2825311;-54
2023/07/01 02:57:32;;;;;;;;;20.50;18.00;;;;;15.26;100.00;98822.47;6284226;20;2835701;-55
2023/07/01 03:00:00;;;;;;;;;19.00;19.00;;;;;15.29;100.00;98830.28;6281117;20;2844081;-53
2023/07/01 03:02:29;;;;;;;;;20.00;19.00;;;;;14.86;100.00;98826.22;6283434;20;2823157;-49
2023/07/01 03:04:58;;;;;;;;;19.00;18.50;;;;;14.78;100.00;98823.38;6284077;20;2824248;-54
2023/07/01 03:07:27;;;;;;;;;23.00;21.50;;;;;14.83;100.00;98826.50;6280430;20;2844145;-52
2023/07/01 03:09:55;;;;;;;;;20.00;20.00;;;;;14.56;100.00;98817.25;6280873;20;2828456;-53
2023/07/01 03:12:23;;;;;;;;;20.00;18.67;;;;;14.73;100.00;98821.09;6287037;20;3563820;-53
2023/07/01 03:14:51;;;;;;;;;19.33;19.33;;;;;14.70;100.00;98822.22;6313310;20;3578353;-54
2023/07/01 03:17:21;;;;;;;;;23.33;18.67;;;;;14.75;100.00;98820.97;6284521;20;3560888;-54
2023/07/01 03:19:49;;;;;;;;;14.67;14.67;;;;;15.08;100.00;98825.91;6311691;20;3534621;-52
2023/07/01 03:22:17;;;;;;;;;21.00;21.00;;;;;15.22;100.00;98826.44;6286295;20;3576397;-52
2023/07/01 03:24:46;;;;;;;;;19.50;18.50;;;;;15.31;100.00;98820.19;6280625;20;2828460;-50
2023/07/01 03:27:14;;;;;;;;;19.00;19.00;;;;;15.34;100.00;98820.72;6282403;20;2836772;-52
2023/07/01 03:29:42;;;;;;;;;20.33;20.33;;;;;15.28;100.00;98823.19;6283232;20;3585766;-50
2023/07/01 03:32:11;;;;;;;;;18.50;17.00;;;;;15.35;100.00;98817.03;6282189;20;2826344;-54
2023/07/01 03:34:39;;;;;;;;;19.50;19.50;;;;;15.90;100.00;98819.00;6281205;20;2828413;-52
2023/07/01 03:37:08;;;;;;;;;20.67;20.67;;;;;15.83;100.00;98815.19;6282329;20;3583615;-53
2023/07/01 03:39:36;;;;;;;;;20.33;19.67;;;;;15.72;100.00;98823.53;6313920;20;3564999;-55
2023/07/01 03:42:06;;;;;;;;;20.00;18.33;;;;;15.76;100.00;98824.91;6315299;20;3581545;-48
2023/07/01 03:44:35;;;;;;;;;19.00;19.00;;;;;15.68;100.00;98825.63;6284348;20;2839894;-51
2023/07/01 03:47:03;;;;;;;;;21.50;21.00;;;;;15.67;100.00;98817.66;6282700;20;2841969;-53
2023/07/01 03:49:31;;;;;;;;;21.50;21.50;;;;;15.92;100.00;98825.13;6281534;20;2846218;-55
2023/07/01 03:52:00;;;;;;;;;19.50;18.50;;;;;15.80;100.00;98820.91;6279309;20;2835734;-51
2023/07/01 03:54:28;;;;;;;;;21.67;20.33;;;;;15.95;100.00;98815.84;6284068;20;3569012;-50
2023/07/01 03:56:57;;;;;;;;;22.67;22.33;;;;;16.24;100.00;98818.38;6280584;20;2838841;-52
2023/07/01 03:59:25;;;;;;;;;22.67;20.00;;;;;16.33;100.00;98825.63;6315355;20;3581528;-49
2023/07/01 04:01:53;;;;;;;;;19.33;18.33;;;;;16.49;100.00;98822.22;6282505;20;3558623;-48
2023/07/01 04:04:21;;;;;;;;;19.33;17.67;;;;;16.75;99.66;98830.44;6310263;20;2500311;-50
2023/07/01 04:06:49;;;;;;;;;20.33;18.67;;;;;16.64;99.17;98833.38;6313383;20;3553479;-52
2023/07/01 04:09:18;;;;;;;;;21.67;21.67;;;;;16.78;98.79;98842.88;6310489;20;3578515;-54
2023/07/01 04:11:47;;;;;;;;;26.67;24.33;;;;;16.63;99.11;98840.66;6279542;20;3595142;-49
2023/07/01 04:14:15;;;;;;;;;25.33;24.33;;;;;17.01;98.80;98833.25;6280986;20;3595097;-51
2023/07/01 04:16:44;;;;;;;;;26.33;24.00;;;;;17.03;98.53;98830.38;6281947;20;3588274;-53
2023/07/01 04:19:12;;;;;;;;;21.50;21.50;;;;;17.44;96.62;98836.97;6282866;20;3528404;-52
2023/07/01 04:21:40;;;;;;;;;17.00;16.00;;;;;17.44;96.70;98834.25;6313883;20;3556923;-49
2023/07/01 04:24:08;;;;;;;;;25.67;23.00;;;;;17.70;96.34;98839.69;6312742;20;3604653;-50
2023/07/01 04:26:37;;;;;;;;;34.67;32.67;;;;;18.15;94.72;98837.72;6283132;20;3583716;-53
2023/07/01 04:29:07;;;;;;;;;70.00;55.33;;;;;18.36;93.18;98837.28;6278032;20;3628516;-52
2023/07/01 04:31:35;;;;;;;;;48.67;40.67;;;;;17.98;95.68;98840.38;6313692;20;3576374;-54
2023/07/01 04:34:03;;;;;;;;;47.33;39.33;;;;;18.21;96.38;98843.34;6310528;20;3596095;-51
2023/07/01 04:36:32;;;;;;;;;41.00;34.67;;;;;18.34;94.88;98836.59;6280367;20;3590923;-54
2023/07/01 04:39:01;;;;;;;;;31.00;28.67;;;;;18.86;93.29;98837.25;6311058;20;3593986;-56
2023/07/01 04:41:30;;;;;;;;;28.67;28.67;;;;;19.47;88.55;98840.47;6283616;20;3581509;-51
2023/07/01 04:43:58;;;;;;;;;29.00;25.33;;;;;18.98;91.51;98837.75;6278505;20;3589887;-54
2023/07/01 04:46:26;;;;;;;;;28.67;25.33;;;;;19.11;92.28;98830.97;6280819;20;3602435;-53
2023/07/01 04:48:55;;;;;;;;;23.67;21.33;;;;;20.09;88.65;98834.41;6282473;20;3596171;-53
2023/07/01 04:51:23;;;;;;;;;24.33;20.00;;;;;20.11;86.10;98831.47;6283679;20;3581916;-53
2023/07/01 04:53:52;;;;;;;;;22.67;22.00;;;;;19.82;88.01;98830.22;6278719;20;2850237;-53
2023/07/01 04:56:23;;;;;;;;;23.00;23.00;;;;;19.65;89.51;98834.00;6313927;20;3580479;-54
2023/07/01 04:58:53;;;;;;;;;20.33;20.33;;;;;19.81;88.85;98825.81;6279290;20;3582639;-53
2023/07/01 05:01:21;;;;;;;;;21.00;21.00;;;;;19.62;89.98;98820.72;6280022;20;3579437;-54
2023/07/01 05:03:49;;;;;;;;;23.67;21.00;;;;;19.59;90.61;98813.75;6280900;20;3582715;-55
2023/07/01 05:06:19;;;;;;;;;26.00;25.33;;;;;19.72;90.19;98821.38;6277942;20;2847277;-57
2023/07/01 05:08:48;;;;;;;;;20.67;20.67;;;;;19.99;90.25;98819.28;6311469;20;3579463;-57
2023/07/01 05:11:16;;;;;;;;;22.67;21.33;;;;;20.11;89.88;98817.84;6281272;20;3584798;-55
2023/07/01 05:13:45;;;;;;;;;21.33;21.00;;;;;20.50;87.53;98819.72;6277159;20;3585750;-55
2023/07/01 05:16:13;;;;;;;;;22.33;22.33;;;;;20.44;86.27;98820.44;6279741;20;3582567;-55
2023/07/01 05:18:41;;;;;;;;;22.00;19.67;;;;;20.56;86.74;98821.75;6281818;20;3579492;-50
2023/07/01 05:21:09;;;;;;;;;23.00;23.00;;;;;20.63;85.11;98820.00;6281769;20;3581644;-55
2023/07/01 05:23:38;;;;;;;;;20.67;20.67;;;;;20.86;84.80;98824.63;6284546;20;3579465;-53
2023/07/01 05:26:06;;;;;;;;;21.00;21.00;;;;;20.59;86.17;98832.31;6285212;20;3581623;-57
2023/07/01 05:28:34;;;;;;;;;24.00;23.00;;;;;21.08;85.51;98831.13;6289153;20;3589882;-54
2023/07/01 05:31:02;;;;;;;;;23.67;22.67;;;;;21.31;83.27;98834.66;6287013;20;3599211;-56
2023/07/01 05:33:30;;;;;;;;;21.00;21.00;;;;;21.37;83.66;98833.09;6287153;20;3576530;-55
2023/07/01 05:35:59;;;;;;;;;21.67;21.33;;;;;21.65;82.30;98836.94;6288858;20;3576358;-56
2023/07/01 05:38:27;;;;;;;;;23.00;23.00;;;;;21.79;81.88;98832.50;6289234;20;3585851;-54
2023/07/01 05:40:55;;;;;;;;;16.50;16.50;;;;;21.85;81.34;98842.72;6286885;20;2823285;-55
2023/07/01 05:43:24;;;;;;;;;23.33;22.00;;;;;22.06;80.23;98844.66;6285535;20;3588794;-53
2023/07/01 05:45:52;;;;;;;;;22.00;21.33;;;;;22.35;80.03;98842.97;6289714;20;3582609;-54
2023/07/01 05:48:20;;;;;;;;;22.00;21.33;;;;;22.39;79.60;98849.78;6288333;20;3598204;-53
2023/07/01 05:50:48;;;;;;;;;21.00;21.00;;;;;22.54;79.36;98847.03;6286689;20;3588824;-55
2023/07/01 05:53:17;;;;;;;;;23.67;23.67;;;;;22.68;78.95;98853.50;6287136;20;3581573;-54
2023/07/01 05:55:45;;;;;;;;;19.33;19.33;;;;;22.98;78.23;98848.78;6286478;20;3577334;-52
2023/07/01 05:58:13;;;;;;;;;24.67;23.00;;;;;23.06;76.33;98848.66;6289441;20;3591950;-56
2023/07/01 06:00:41;;;;;;;;;24.00;24.00;;;;;22.91;77.27;98840.50;6285640;20;3591939;-52
2023/07/01 06:03:11;;;;;;;;;20.67;20.67;;;;;23.16;76.48;98838.22;6287585;20;3588915;-53
2023/07/01 06:05:39;;;;;;;;;21.67;21.67;;;;;23.36;75.49;98837.59;6287254;20;3593091;-54
2023/07/01 06:08:08;;;;;;;;;20.67;19.00;;;;;23.40;77.61;98836.13;6286365;20;2828572;-54
2023/07/01 06:10:37;;;;;;;;;21.67;19.33;;;;;23.59;75.87;98837.31;6315559;20;3577430;-51
2023/07/01 06:13:05;;;;;;;;;22.00;21.67;;;;;23.96;74.33;98840.78;6317890;20;3586860;-56
2023/07/01 06:15:34;;;;;;;;;21.00;20.67;;;;;24.05;73.32;98843.16;6286552;20;3589921;-52
2023/07/01 06:18:03;;;;;;;;;23.00;21.00;;;;;24.27;72.60;98841.16;6289306;20;3596093;-55
2023/07/01 06:20:31;;;;;;;;;18.67;18.67;;;;;24.39;70.80;98840.59;6320785;20;3570073;-57
2023/07/01 06:23:02;;;;;;;;;21.71;21.00;;;;;24.72;72.10;98848.97;6313398;20;3589866;-56
2023/07/01 06:25:30;;;;;;;;;22.00;20.33;;;;;24.58;72.47;98849.97;6290031;20;3587924;-58
2023/07/01 06:27:58;;;;;;;;;20.33;20.33;;;;;24.94;68.08;98852.44;6286480;20;3581796;-55
2023/07/01 06:30:26;;;;;;;;;22.67;21.67;;;;;25.06;65.61;98858.13;6286023;20;3578401;-51
2023/07/01 06:32:55;;;;;;;;;22.25;21.25;;;;;25.03;63.96;98853.91;6288548;20;3590901;-55
2023/07/01 06:35:26;;;;;;;;;21.00;20.14;;;;;25.12;65.50;98863.66;6333250;20;3584848;-52
2023/07/01 06:37:54;;;;;;;;;20.33;20.33;;;;;25.57;61.63;98861.19;6286370;20;3592068;-54
2023/07/01 06:40:23;;;;;;;;;24.00;20.33;;;;;25.58;60.94;98868.38;6284857;20;3598219;-54
2023/07/01 06:42:52;;;;;;;;;20.00;17.00;;;;;25.66;60.16;98869.22;6284045;20;3571088;-55
2023/07/01 06:45:21;;;;;;;;;21.00;20.00;;;;;25.59;63.02;98858.22;6316711;20;3567033;-53
2023/07/01 06:47:50;;;;;;;;;20.33;19.00;;;;;25.99;62.15;98848.06;6315289;20;3579413;-55
2023/07/01 06:50:19;;;;;;;;;20.00;19.00;;;;;26.48;60.18;98857.63;6315073;20;3573208;-54
2023/07/01 06:52:50;;;;;;;;;20.71;19.86;;;;;26.85;61.26;98859.84;6334266;20;3571090;-57
2023/07/01 06:55:19;;;;;;;;;18.33;18.33;;;;;26.97;59.22;98857.25;6287840;20;3565957;-58
2023/07/01 06:57:47;;;;;;;;;19.33;19.33;;;;;27.30;58.88;98854.28;6288024;20;3568407;-54
2023/07/01 07:00:16;;;;;;;;;19.33;18.33;;;;;27.23;59.81;98854.34;6283937;20;3571218;-54
2023/07/01 07:02:44;;;;;;;;;25.00;20.00;;;;;26.95;58.73;98853.84;6284684;20;2628432;-52
2023/07/01 07:05:15;;;;;;;;;23.14;20.71;;;;;27.64;56.75;98847.44;6335525;20;3578411;-56
2023/07/01 07:07:43;;;;;;;;;19.33;18.67;;;;;27.75;56.98;98854.13;6289397;20;3574312;-57
2023/07/01 07:10:11;;;;;;;;;16.00;14.00;;;;;27.75;56.70;98851.38;6284132;20;2817347;-55
2023/07/01 07:12:40;;;;;;;;;17.67;17.67;;;;;27.64;55.35;98843.84;6282985;20;2831689;-58
2023/07/01 07:15:09;;;;;;;;;18.33;18.33;;;;;27.74;56.38;98844.16;6311939;20;3565962;-58
2023/07/01 07:17:40;;;;;;;;;21.71;21.00;;;;;28.16;55.41;98848.00;6332759;20;3587761;-58
2023/07/01 07:20:10;;;;;;;;;21.00;21.00;;;;;28.24;53.37;98847.72;6283821;20;3585795;-56
2023/07/01 07:22:41;;;;;;;;;23.14;22.00;;;;;28.37;54.27;98848.63;6325878;20;3575658;-59
2023/07/01 07:25:17;;;;;;;;;20.33;20.00;;;;;28.11;53.97;98847.84;6276585;20;3574281;-60
2023/07/01 07:27:46;;;;;;;;;20.00;20.00;;;;;28.49;53.88;98840.44;6308694;20;3583995;-59
2023/07/01 07:30:14;;;;;;;;;21.67;19.00;;;;;28.94;50.66;98838.16;6273908;20;3569014;-57
2023/07/01 07:32:43;;;;;;;;;21.00;21.00;;;;;29.34;50.84;98837.59;6280817;20;3591920;-59
2023/07/01 07:35:12;;;;;;;;;20.67;19.67;;;;;29.10;51.47;98843.03;6276181;20;3583581;-59
2023/07/01 07:37:42;;;;;;;;;20.33;19.00;;;;;29.31;48.82;98841.66;6306775;20;3574214;-59
2023/07/01 07:40:13;;;;;;;;;20.71;20.71;;;;;28.93;52.03;98830.09;6327525;20;3577954;-58
2023/07/01 07:42:43;;;;;;;;;20.67;20.00;;;;;29.18;50.26;98836.34;6275431;20;3573749;-58
2023/07/01 07:45:17;;;;;;;;;20.86;20.86;;;;;29.10;50.75;98828.38;6323957;20;3578395;-59
2023/07/01 07:47:45;;;;;;;;;21.33;19.67;;;;;29.24;50.78;98838.16;6276619;20;1889998;-57
2023/07/01 07:50:14;;;;;;;;;22.00;21.00;;;;;29.56;50.56;98843.38;6303000;20;3598176;-60
2023/07/01 07:52:45;;;;;;;;;19.29;19.29;;;;;28.60;52.03;98837.75;6322749;20;3591916;-60
2023/07/01 07:55:14;;;;;;;;;21.33;21.33;;;;;29.06;52.24;98836.28;6273409;20;3587764;-60
2023/07/01 07:57:42;;;;;;;;;22.33;22.33;;;;;28.90;50.69;98836.94;6273334;20;3589882;-59
2023/07/01 08:00:12;;;;;;;;;22.67;22.00;;;;;28.91;49.84;98827.53;6269890;20;3585667;-60
2023/07/01 08:02:47;;;;;;;;;22.29;22.29;;;;;29.14;50.91;98837.88;6326362;20;3598631;-59
2023/07/01 08:05:18;;;;;;;;;23.43;21.29;;;;;29.04;51.66;98827.41;6293145;20;3573208;-59
2023/07/01 08:07:47;;;;;;;;;20.00;18.67;;;;;28.94;51.12;98829.88;6274621;20;3570077;-60
2023/07/01 08:10:17;;;;;;;;;23.33;22.00;;;;;29.33;50.10;98830.34;6305068;20;3594190;-59
2023/07/01 08:12:46;;;;;;;;;22.67;22.67;;;;;29.53;49.59;98833.63;6274187;20;3589896;-59
2023/07/01 08:15:17;;;;;;;;;20.29;20.29;;;;;29.84;48.53;98830.81;6321791;20;3579459;-58
2023/07/01 08:17:45;;;;;;;;;20.33;20.00;;;;;29.41;51.22;98826.41;6275712;20;3582626;-59
2023/07/01 08:20:14;;;;;;;;;23.00;22.33;;;;;30.11;50.49;98820.06;6271938;20;3593097;-60
2023/07/01 08:22:42;;;;;;;;;25.33;24.33;;;;;29.12;52.71;98823.44;6275144;20;3578549;-59
2023/07/01 08:25:11;;;;;;;;;23.00;23.00;;;;;29.04;53.69;98818.22;6274059;20;3593012;-59
2023/07/01 08:27:42;;;;;;;;;23.43;22.14;;;;;29.79;51.17;98826.00;6289369;20;3583579;-58
2023/07/01 08:30:12;;;;;;;;;27.33;25.67;;;;;29.50;52.97;98820.28;6271035;20;3574254;-60
2023/07/01 08:32:43;;;;;;;;;24.43;24.14;;;;;29.42;51.96;98817.88;6327218;20;3598266;-60
2023/07/01 08:35:12;;;;;;;;;24.33;23.00;;;;;29.18;52.17;98816.16;6271765;20;3598336;-59
2023/07/01 08:37:43;;;;;;;;;23.57;22.86;;;;;29.16;52.96;98818.31;6325222;20;3591935;-59
2023/07/01 08:40:13;;;;;;;;;26.33;25.33;;;;;29.62;52.60;98811.13;6272387;20;3578618;-59
2023/07/01 08:42:48;;;;;;;;;21.67;21.67;;;;;28.98;50.96;98800.66;6302520;20;3585870;-60
2023/07/01 08:45:21;;;;;;;;;21.00;21.00;;;;;29.48;49.38;98816.91;6274058;20;3585703;-59
2023/07/01 08:47:53;;;;;;;;;25.33;24.33;;;;;28.94;48.48;98809.66;6272941;20;3597678;-60
2023/07/01 08:50:23;;;;;;;;;22.75;22.75;;;;;29.12;48.56;98811.53;6268550;20;3591938;-56
2023/07/01 08:53:06;;;;;;;;;19.71;19.71;;;;;28.95;47.92;98809.44;6318965;20;3570426;-58
2023/07/01 08:55:35;;;;;;;;;19.00;19.00;;;;;28.77;50.30;98810.31;6269492;20;3569010;-58
2023/07/01 08:58:06;;;;;;;;;19.43;19.00;;;;;29.02;50.70;98809.34;6320668;20;3569031;-59
2023/07/01 09:00:35;;;;;;;;;21.67;21.00;;;;;29.18;47.61;98807.84;6273877;20;3597197;-59
2023/07/01 09:03:05;;;;;;;;;21.33;20.67;;;;;29.60;46.62;98808.63;6270554;20;3580909;-58
2023/07/01 09:05:34;;;;;;;;;18.00;18.00;;;;;29.20;46.92;98805.66;6302652;20;3579601;-55
2023/07/01 09:08:03;;;;;;;;;26.33;25.00;;;;;30.11;47.27;98817.31;6303424;20;3583584;-58
2023/07/01 09:10:34;;;;;;;;;20.00;19.29;;;;;29.65;50.05;98805.16;6319082;20;3573177;-59
2023/07/01 09:13:13;;;;;;;;;18.33;16.33;;;;;29.92;46.18;98809.13;6274592;20;3570291;-57
2023/07/01 09:15:46;;;;;;;;;20.67;20.67;;;;;29.26;47.80;98810.28;6303072;20;3587757;-59
2023/07/01 09:18:24;;;;;;;;;21.67;21.67;;;;;29.94;47.05;98808.91;6267719;20;3598362;-58
2023/07/01 09:20:53;;;;;;;;;21.00;21.00;;;;;29.92;48.49;98806.38;6273957;20;3585693;-57
2023/07/01 09:23:36;;;;;;;;;22.29;20.57;;;;;29.92;46.63;98803.59;6292948;20;3579471;-58
2023/07/01 09:26:08;;;;;;;;;21.33;20.67;;;;;30.61;45.37;98802.88;6267677;20;3585678;-57
2023/07/01 09:28:44;;;;;;;;;18.86;18.29;;;;;30.72;45.88;98804.75;6321853;20;3579500;-59
2023/07/01 09:31:15;;;;;;;;;19.33;19.33;;;;;30.90;45.51;98795.44;6272404;20;3572245;-56
2023/07/01 09:34:00;;;;;;;;;21.00;19.33;;;;;31.04;45.55;98796.81;6300956;20;3577484;-59
2023/07/01 09:36:32;;;;;;;;;19.43;19.43;;;;;30.72;42.45;98792.81;6324155;20;3576452;-59
2023/07/01 09:39:05;;;;;;;;;20.57;19.14;;;;;30.58;43.61;98782.03;6283909;20;3555598;-59
2023/07/01 09:41:34;;;;;;;;;16.00;16.00;;;;;30.26;43.87;98789.97;6268926;20;3556647;-59
2023/07/01 09:44:16;;;;;;;;;19.33;19.33;;;;;30.61;42.63;98776.00;6301462;20;3571088;-59
2023/07/01 09:46:50;;;;;;;;;18.00;18.00;;;;;30.86;42.76;98787.84;6268382;20;3572133;-60
2023/07/01 09:49:35;;;;;;;;;20.57;20.43;;;;;30.88;41.66;98785.69;6317903;20;3582584;-60
2023/07/01 09:52:04;;;;;;;;;19.00;19.00;;;;;31.02;39.64;98787.06;6272463;20;3577412;-59
2023/07/01 09:54:33;;;;;;;;;19.33;19.33;;;;;30.79;43.26;98782.44;6266948;20;3562762;-59
2023/07/01 09:57:01;;;;;;;;;17.67;16.00;;;;;31.42;39.77;98770.31;6264245;20;3571270;-57
2023/07/01 09:59:29;;;;;;;;;17.67;16.00;;;;;31.37;41.93;98775.75;6272112;20;3563851;-59
2023/07/01 10:02:01;;;;;;;;;21.00;21.00;;;;;30.54;41.89;98774.47;6275223;20;3589943;-59
2023/07/01 10:04:30;;;;;;;;;21.00;21.00;;;;;30.48;43.81;98767.16;6259157;20;3586874;-60
2023/07/01 10:07:03;;;;;;;;;17.57;16.43;;;;;30.30;42.01;98763.47;6315757;20;3558620;-59
2023/07/01 10:09:32;;;;;;;;;20.33;20.33;;;;;30.70;42.73;98768.16;6263296;20;3580481;-60
2023/07/01 10:12:01;;;;;;;;;17.33;17.33;;;;;31.20;42.78;98761.88;6302428;20;3552624;-60
2023/07/01 10:14:33;;;;;;;;;18.00;18.00;;;;;30.98;41.28;98767.28;6274836;20;3564894;-59
2023/07/01 10:17:05;;;;;;;;;18.86;18.86;;;;;31.12;40.55;98767.81;6328538;20;3571156;-58
2023/07/01 10:19:35;;;;;;;;;18.00;18.00;;;;;30.93;42.59;98767.19;6280665;20;3555642;-60
2023/07/01 10:22:23;;;;;;;;;16.67;16.67;;;;;31.04;40.93;98759.91;6274662;20;3550483;-60
2023/07/01 10:25:04;;;;;;;;;18.67;18.67;;;;;30.88;40.90;98758.78;6303877;20;3579433;-59
2023/07/01 10:27:59;;;;;;;;;19.00;19.00;;;;;30.86;41.73;98755.44;6299107;20;3576319;-59
2023/07/01 10:30:47;;;;;;;;;13.33;13.33;;;;;30.84;40.52;98764.00;6306347;20;3533642;-58
2023/07/01 10:33:27;;;;;;;;;16.67;16.67;;;;;30.87;39.94;98751.56;6307458;20;3559786;-62
2023/07/01 10:36:07;;;;;;;;;16.00;16.00;;;;;31.51;40.70;98751.28;6269312;20;3563938;-59
2023/07/01 10:38:39;;;;;;;;;17.33;15.00;;;;;31.59;39.88;98756.41;6306123;20;3556634;-60
2023/07/01 10:41:07;;;;;;;;;17.00;17.00;;;;;31.49;41.84;98756.22;6308908;20;3566997;-58
2023/07/01 10:43:37;;;;;;;;;16.67;16.67;;;;;30.77;41.77;98754.97;6280051;20;3565958;-60
2023/07/01 10:46:19;;;;;;;;;17.00;16.00;;;;;30.66;42.32;98750.31;6280119;20;3556533;-59
2023/07/01 10:49:02;;;;;;;;;16.33;16.33;;;;;31.36;40.45;98748.22;6267428;20;3563816;-60
2023/07/01 10:51:54;;;;;;;;;15.00;15.00;;;;;31.14;40.84;98751.75;6273957;20;3544263;-60
2023/07/01 10:54:32;;;;;;;;;17.33;16.33;;;;;30.72;42.31;98754.88;6297913;20;3560704;-60
2023/07/01 10:57:15;;;;;;;;;18.71;17.57;;;;;31.16;42.56;98749.59;6325881;20;3557564;-59
2023/07/01 10:59:44;;;;;;;;;15.33;15.33;;;;;31.46;42.03;98754.81;6277554;20;3552328;-60
2023/07/01 11:02:38;;;;;;;;;18.33;17.00;;;;;31.31;41.76;98760.09;6275282;20;3556643;-60
2023/07/01 11:05:08;;;;;;;;;16.00;16.00;;;;;31.57;41.62;98757.75;6274434;20;3558572;-58
2023/07/01 11:07:41;;;;;;;;;16.67;16.67;;;;;30.98;43.22;98752.59;6302229;20;3560740;-59
2023/07/01 11:10:10;;;;;;;;;17.00;17.00;;;;;31.43;41.46;98748.94;6302267;20;3561780;-57
2023/07/01 11:12:41;;;;;;;;;19.57;18.43;;;;;31.52;40.95;98741.00;6318015;20;3574239;-58
2023/07/01 11:15:18;;;;;;;;;17.67;17.67;;;;;30.99;42.31;98738.50;6275875;20;3557711;-58